Time;durP1;ratioP1;P1;durP2;ratioP2;P2;SDS_P1;SDS_P2;PMS_P1;PMS_P2;Temp;Humidity;BMP_temperature;BMP_pressure;BME280_temperature;BME280_humidity;BME280_pressure;Samples;Min_cycle;Max_cycle;Signal;HPM_P1;HPM_P2
2022/07/27 00:01:13;;;;;;;21.52;19.05;;;23.40;90.50;;;;;;5071615;28;20020;-77
2022/07/27 00:03:39;;;;;;;23.88;19.73;;;23.40;90.60;;;;;;5071524;28;20020;-79
2022/07/27 00:06:05;;;;;;;23.10;18.75;;;23.40;90.70;;;;;;5067316;28;20020;-78
2022/07/27 00:08:31;;;;;;;21.40;18.73;;;23.40;90.70;;;;;;5071368;28;20085;-79
2022/07/27 00:10:57;;;;;;;22.33;19.55;;;23.30;90.80;;;;;;5071351;28;20260;-79
2022/07/27 00:13:23;;;;;;;21.27;19.10;;;23.30;90.90;;;;;;5053154;28;20406;-79
2022/07/27 00:15:49;;;;;;;23.60;18.42;;;23.30;91.00;;;;;;5072140;28;20027;-78
2022/07/27 00:18:15;;;;;;;22.35;18.73;;;23.30;91.10;;;;;;5086968;28;20028;-79
2022/07/27 00:20:41;;;;;;;22.95;19.05;;;23.20;91.20;;;;;;5071576;28;20029;-77
2022/07/27 00:23:07;;;;;;;22.85;18.23;;;23.20;91.30;;;;;;5071075;28;20076;-78
2022/07/27 00:25:34;;;;;;;21.08;18.60;;;23.20;91.40;;;;;;5071539;28;20052;-79
2022/07/27 00:28:00;;;;;;;21.48;18.30;;;23.20;91.50;;;;;;5071393;28;20020;-78
2022/07/27 00:30:26;;;;;;;20.67;17.83;;;23.20;91.60;;;;;;5070870;28;20034;-79
2022/07/27 00:32:52;;;;;;;23.85;18.23;;;23.10;91.70;;;;;;5071007;28;20072;-77
2022/07/27 00:35:18;;;;;;;22.83;19.65;;;23.10;91.80;;;;;;5071035;28;20422;-78
2022/07/27 00:37:44;;;;;;;23.05;19.05;;;23.10;91.90;;;;;;5053007;28;20386;-79
2022/07/27 00:40:10;;;;;;;26.10;19.25;;;23.00;92.00;;;;;;5071194;28;20098;-78
2022/07/27 00:42:36;;;;;;;25.30;19.88;;;23.00;92.10;;;;;;5060175;28;20043;-77
2022/07/27 00:45:03;;;;;;;23.92;19.27;;;23.00;92.30;;;;;;5071141;28;20016;-80
2022/07/27 00:47:29;;;;;;;25.17;20.02;;;22.90;92.30;;;;;;5071213;28;20036;-79
2022/07/27 00:49:56;;;;;;;22.52;19.85;;;22.90;92.40;;;;;;5071146;28;20131;-79
2022/07/27 00:52:23;;;;;;;28.45;20.45;;;22.90;92.50;;;;;;5070981;28;20523;-78
2022/07/27 00:54:49;;;;;;;25.73;20.87;;;22.90;92.60;;;;;;5067057;28;20059;-79
2022/07/27 00:57:15;;;;;;;28.27;20.87;;;22.90;92.60;;;;;;5070991;28;20107;-79
2022/07/27 00:59:42;;;;;;;22.20;19.83;;;22.90;92.60;;;;;;5070836;28;20032;-77
2022/07/27 01:02:08;;;;;;;20.70;18.55;;;22.90;92.70;;;;;;5069975;28;20024;-78
2022/07/27 01:04:34;;;;;;;26.90;20.33;;;22.90;92.70;;;;;;5071006;28;20032;-79
2022/07/27 01:07:01;;;;;;;27.38;21.10;;;22.90;92.80;;;;;;5062601;28;20017;-78
2022/07/27 01:12:16;;;;;;;28.20;20.35;;;22.90;92.90;;;;;;5071161;28;20040;-78
2022/07/27 01:14:42;;;;;;;24.13;20.92;;;22.90;93.00;;;;;;5052931;28;20497;-77
2022/07/27 01:17:08;;;;;;;29.00;20.20;;;22.90;93.00;;;;;;5070716;28;20067;-78
2022/07/27 01:19:35;;;;;;;24.65;20.67;;;22.90;93.00;;;;;;5071184;28;20035;-79
2022/07/27 01:22:04;;;;;;;25.15;21.52;;;22.90;93.00;;;;;;5070665;28;20109;-78
2022/07/27 01:24:30;;;;;;;23.13;19.70;;;22.90;93.00;;;;;;5070863;28;20027;-79
2022/07/27 01:26:56;;;;;;;26.90;20.65;;;22.90;93.10;;;;;;5055672;28;20024;-79
2022/07/27 01:29:22;;;;;;;25.65;21.27;;;22.90;93.20;;;;;;5074432;28;20025;-78
2022/07/27 01:31:47;;;;;;;22.98;20.52;;;22.80;93.20;;;;;;5076392;28;20021;-79
2022/07/27 01:34:13;;;;;;;22.10;19.95;;;22.80;93.30;;;;;;5071675;28;20147;-78
2022/07/27 01:36:39;;;;;;;23.67;21.25;;;22.80;93.40;;;;;;5074983;28;20124;-78
2022/07/27 01:39:05;;;;;;;26.75;21.80;;;22.80;93.50;;;;;;5074883;28;20564;-77
2022/07/27 01:41:31;;;;;;;24.15;21.48;;;22.80;93.60;;;;;;5075912;28;20020;-78
2022/07/27 01:43:57;;;;;;;29.15;21.80;;;22.80;93.70;;;;;;5074584;28;20021;-79
2022/07/27 01:46:22;;;;;;;28.05;21.80;;;22.70;93.70;;;;;;5056123;28;20020;-78
2022/07/27 01:48:48;;;;;;;25.33;21.38;;;22.70;93.80;;;;;;5074094;28;20016;-78
2022/07/27 01:51:14;;;;;;;25.52;21.25;;;22.70;93.80;;;;;;5074097;28;20024;-78
2022/07/27 01:53:40;;;;;;;28.88;22.55;;;22.70;93.90;;;;;;5073953;28;20481;-77
2022/07/27 01:56:13;;;;;;;24.17;21.27;;;22.70;93.90;;;;;;5073824;28;20020;-78
2022/07/27 01:58:40;;;;;;;30.00;22.13;;;22.70;94.00;;;;;;5073816;28;20028;-77
2022/07/27 02:01:06;;;;;;;24.80;20.08;;;22.70;94.00;;;;;;5068002;28;20020;-78
2022/07/27 02:03:32;;;;;;;26.27;22.02;;;22.70;94.00;;;;;;5064947;28;20460;-78
2022/07/27 02:05:58;;;;;;;24.60;22.00;;;22.70;94.00;;;;;;5055746;28;20027;-78
2022/07/27 02:08:24;;;;;;;28.25;23.10;;;22.70;94.00;;;;;;5073537;28;20722;-79
2022/07/27 02:13:35;;;;;;;25.08;20.70;;;22.80;94.00;;;;;;5073701;28;20170;-77
2022/07/27 02:16:01;;;;;;;24.25;21.45;;;22.80;93.90;;;;;;5073736;28;20092;-77
2022/07/27 02:18:27;;;;;;;27.02;22.65;;;22.80;93.90;;;;;;5073759;28;20025;-78
2022/07/27 02:20:52;;;;;;;25.98;21.05;;;22.90;93.90;;;;;;5073968;28;20024;-78
2022/07/27 02:23:19;;;;;;;31.73;21.50;;;22.90;93.90;;;;;;5073354;28;20044;-79
2022/07/27 02:25:45;;;;;;;25.80;22.83;;;22.90;93.90;;;;;;5073583;28;20508;-77
2022/07/27 02:28:11;;;;;;;24.30;20.98;;;22.90;93.90;;;;;;5073516;28;20104;-78
2022/07/27 02:30:37;;;;;;;28.52;21.23;;;23.00;93.80;;;;;;5073594;28;20102;-78
2022/07/27 02:33:02;;;;;;;25.00;22.20;;;23.00;93.80;;;;;;5073311;28;20405;-78
2022/07/27 02:35:28;;;;;;;30.90;23.00;;;23.10;93.70;;;;;;5073351;28;20082;-78
2022/07/27 02:37:54;;;;;;;26.15;23.45;;;23.10;93.70;;;;;;5073314;28;20024;-78
2022/07/27 02:40:20;;;;;;;26.35;23.50;;;23.10;93.60;;;;;;5073286;28;20059;-77
2022/07/27 02:42:47;;;;;;;25.00;22.40;;;23.10;93.50;;;;;;5055296;28;20056;-78
2022/07/27 02:45:14;;;;;;;27.17;24.40;;;23.20;93.50;;;;;;5073290;28;20017;-78
2022/07/27 02:47:40;;;;;;;27.30;23.75;;;23.20;93.40;;;;;;5073160;28;20021;-78
2022/07/27 02:50:06;;;;;;;32.35;24.27;;;23.30;93.30;;;;;;5073102;28;20029;-78
2022/07/27 02:52:33;;;;;;;26.70;24.00;;;23.30;93.10;;;;;;5054769;28;20024;-79
2022/07/27 02:54:58;;;;;;;28.30;24.45;;;23.40;93.00;;;;;;5072980;28;20051;-78
2022/07/27 02:57:24;;;;;;;28.10;24.00;;;23.50;92.90;;;;;;5072959;28;20021;-77
2022/07/27 02:59:50;;;;;;;29.00;23.38;;;23.60;92.70;;;;;;5072954;28;20036;-77
2022/07/27 03:02:16;;;;;;;24.02;21.55;;;23.70;92.60;;;;;;5072876;28;20033;-78
2022/07/27 03:04:42;;;;;;;33.05;23.83;;;23.70;92.40;;;;;;5072725;28;20040;-79
2022/07/27 03:07:08;;;;;;;29.80;23.02;;;23.80;92.20;;;;;;5053731;28;20020;-78
2022/07/27 03:09:34;;;;;;;26.33;23.50;;;23.90;91.80;;;;;;5072554;28;20077;-78
2022/07/27 03:12:01;;;;;;;27.60;23.17;;;24.00;91.60;;;;;;5072905;28;20385;-78
2022/07/27 03:14:27;;;;;;;28.35;24.73;;;24.00;91.50;;;;;;5072667;28;20032;-78
2022/07/27 03:16:53;;;;;;;26.90;23.88;;;24.10;91.20;;;;;;5054642;28;20032;-77
2022/07/27 03:19:19;;;;;;;28.20;25.15;;;24.20;91.00;;;;;;5038039;28;20138;-78
2022/07/27 03:21:45;;;;;;;27.27;24.10;;;24.20;90.80;;;;;;5072200;28;20025;-78
2022/07/27 03:24:11;;;;;;;31.23;24.05;;;24.20;90.80;;;;;;5072434;28;20039;-78
2022/07/27 03:26:36;;;;;;;26.42;23.65;;;24.20;90.80;;;;;;5072317;28;20158;-78
2022/07/27 03:29:03;;;;;;;30.02;24.02;;;24.30;90.60;;;;;;5072398;28;20025;-79
2022/07/27 03:31:29;;;;;;;26.38;23.55;;;24.40;90.50;;;;;;5072300;28;20052;-78
2022/07/27 03:33:55;;;;;;;27.40;24.35;;;24.40;90.40;;;;;;5072090;28;20064;-78
2022/07/27 03:36:21;;;;;;;28.13;23.77;;;24.50;90.30;;;;;;5072170;28;20027;-79
2022/07/27 03:38:47;;;;;;;33.70;28.08;;;24.60;90.30;;;;;;5053976;28;20029;-78
2022/07/27 03:41:13;;;;;;;31.98;26.52;;;24.70;90.00;;;;;;5072031;28;20470;-78
2022/07/27 03:43:38;;;;;;;34.25;25.98;;;24.70;89.40;;;;;;5072079;28;20465;-78
2022/07/27 03:46:04;;;;;;;30.25;26.85;;;24.70;89.70;;;;;;5072018;28;20017;-79
2022/07/27 03:48:30;;;;;;;35.53;25.70;;;24.80;89.70;;;;;;5071445;28;20031;-79
2022/07/27 03:50:56;;;;;;;35.95;28.88;;;24.80;89.30;;;;;;5071708;28;20024;-78
2022/07/27 03:53:22;;;;;;;32.38;27.30;;;24.90;89.30;;;;;;5071910;28;20041;-77
2022/07/27 03:55:48;;;;;;;36.92;28.38;;;24.90;89.30;;;;;;5072168;28;20025;-78
2022/07/27 03:58:14;;;;;;;34.20;28.30;;;25.00;89.10;;;;;;5071806;28;20429;-78
2022/07/27 04:00:40;;;;;;;30.77;26.92;;;25.00;88.50;;;;;;5071689;28;20048;-78
2022/07/27 04:03:06;;;;;;;30.38;27.08;;;25.00;88.40;;;;;;5071783;28;20111;-79
2022/07/27 04:05:32;;;;;;;38.78;29.77;;;25.00;88.00;;;;;;5071947;28;20166;-79
2022/07/27 04:07:57;;;;;;;37.50;28.13;;;24.90;87.80;;;;;;5071664;28;20035;-78
2022/07/27 04:10:24;;;;;;;40.05;29.98;;;25.00;88.00;;;;;;5053550;28;20059;-77
2022/07/27 04:12:49;;;;;;;39.95;29.85;;;25.00;88.30;;;;;;5071690;28;20101;-79
2022/07/27 04:15:20;;;;;;;41.58;31.15;;;25.00;87.50;;;;;;5071703;28;20082;-80
2022/07/27 04:17:46;;;;;;;41.33;30.08;;;25.00;87.40;;;;;;5071761;28;20028;-78
2022/07/27 04:20:12;;;;;;;44.10;29.75;;;25.10;87.60;;;;;;5053401;28;20382;-78
2022/07/27 04:22:38;;;;;;;35.88;28.27;;;25.20;87.40;;;;;;5071909;28;20040;-78
2022/07/27 04:25:05;;;;;;;38.13;29.23;;;25.40;86.90;;;;;;5053341;28;20028;-78
2022/07/27 04:27:31;;;;;;;44.05;29.65;;;25.60;86.10;;;;;;5071588;28;20068;-78
2022/07/27 04:29:56;;;;;;;34.28;28.52;;;25.70;85.30;;;;;;5071272;28;20450;-78
2022/07/27 04:32:22;;;;;;;42.45;30.50;;;25.80;84.60;;;;;;5071190;28;20492;-78
2022/07/27 04:34:48;;;;;;;43.67;30.73;;;25.80;84.30;;;;;;5071261;28;20073;-78
2022/07/27 04:37:14;;;;;;;41.63;29.73;;;25.90;84.50;;;;;;5071259;28;20025;-79
2022/07/27 04:39:40;;;;;;;36.42;29.92;;;26.00;84.10;;;;;;5071371;28;20119;-78
2022/07/27 04:42:07;;;;;;;46.47;29.52;;;26.00;84.00;;;;;;5071415;28;20099;-79
2022/07/27 04:44:33;;;;;;;45.87;31.60;;;26.10;83.70;;;;;;5071156;28;20033;-78
2022/07/27 04:46:59;;;;;;;36.00;28.80;;;26.20;83.30;;;;;;5071173;28;20090;-79
2022/07/27 04:49:24;;;;;;;34.30;29.58;;;26.30;83.40;;;;;;5071037;28;20017;-79
2022/07/27 04:51:50;;;;;;;33.90;27.42;;;26.40;82.80;;;;;;5071375;28;20066;-78
2022/07/27 04:54:16;;;;;;;34.67;28.55;;;26.50;82.20;;;;;;5053117;28;20032;-79
2022/07/27 04:56:42;;;;;;;33.55;29.10;;;26.60;81.30;;;;;;5060551;28;20107;-79
2022/07/27 04:59:08;;;;;;;34.53;28.60;;;26.60;80.70;;;;;;5071208;28;20024;-79
2022/07/27 05:01:33;;;;;;;32.67;29.13;;;26.60;80.80;;;;;;5074966;28;20021;-80
2022/07/27 05:03:59;;;;;;;31.83;27.38;;;26.80;81.00;;;;;;5075203;28;20055;-82
2022/07/27 05:06:25;;;;;;;34.67;27.05;;;27.00;80.20;;;;;;5074955;28;20114;-79
2022/07/27 05:08:51;;;;;;;33.60;27.33;;;27.60;79.80;;;;;;5073638;28;20122;-79
2022/07/27 05:11:17;;;;;;;31.52;27.08;;;28.40;76.80;;;;;;5075044;28;20067;-79
2022/07/27 05:13:43;;;;;;;33.33;28.38;;;29.10;74.20;;;;;;5074594;28;20056;-79
2022/07/27 05:16:09;;;;;;;33.73;28.13;;;29.90;71.30;;;;;;5075127;28;20090;-79
2022/07/27 05:18:39;;;;;;;34.58;26.95;;;30.50;69.20;;;;;;5074549;28;20029;-80
2022/07/27 05:21:06;;;;;;;29.90;25.05;;;31.10;67.50;;;;;;5074709;28;20066;-79
2022/07/27 05:23:33;;;;;;;32.38;26.25;;;31.80;65.20;;;;;;5056311;28;20061;-79
2022/07/27 05:25:59;;;;;;;;;;;;;;;;;;5075018;28;20040;-80
2022/07/27 05:28:25;;;;;;;29.85;26.15;;;33.20;62.90;;;;;;5074502;28;19905;-79
2022/07/27 05:30:51;;;;;;;29.90;25.53;;;;;;;;;;5074358;28;20504;-78
2022/07/27 05:33:17;;;;;;;32.75;27.52;;;33.20;61.10;;;;;;5074493;28;20035;-78
2022/07/27 05:35:43;;;;;;;33.20;27.17;;;34.40;58.10;;;;;;5074216;28;20028;-79
2022/07/27 05:38:08;;;;;;;28.43;25.53;;;34.70;57.60;;;;;;5074359;28;20020;-79
2022/07/27 05:40:34;;;;;;;30.60;25.10;;;34.80;55.70;;;;;;5055870;28;20579;-79
2022/07/27 05:43:00;;;;;;;30.27;24.40;;;34.90;55.50;;;;;;5074404;28;20031;-79
2022/07/27 05:45:26;;;;;;;35.17;25.43;;;35.20;55.10;;;;;;5074447;28;20024;-79
2022/07/27 05:47:53;;;;;;;27.43;22.93;;;;;;;;;;5061344;28;20021;-79
2022/07/27 05:50:19;;;;;;;26.08;22.02;;;35.50;54.40;;;;;;5071074;28;20099;-78
2022/07/27 05:52:45;;;;;;;27.77;24.20;;;36.00;51.90;;;;;;5073789;28;20456;-79
2022/07/27 05:55:11;;;;;;;26.10;23.40;;;35.80;51.90;;;;;;5055110;28;20345;-79
2022/07/27 05:57:37;;;;;;;24.85;22.25;;;35.50;51.80;;;;;;5073644;28;20040;-80
2022/07/27 06:00:08;;;;;;;26.75;23.83;;;35.40;51.60;;;;;;5055817;28;20024;-79
2022/07/27 06:02:34;;;;;;;26.92;23.20;;;35.50;51.80;;;;;;5073822;28;20051;-78
2022/07/27 06:05:00;;;;;;;27.27;24.33;;;;;;;;;;5073708;28;20021;-79
2022/07/27 06:10:13;;;;;;;29.25;22.20;;;37.10;50.70;;;;;;5071872;28;20035;-80
2022/07/27 06:12:40;;;;;;;26.60;23.60;;;38.20;48.50;;;;;;5072689;28;20420;-78
2022/07/27 06:15:08;;;;;;;27.17;24.33;;;38.90;47.50;;;;;;5073597;28;20254;-77
2022/07/27 06:17:34;;;;;;;31.67;23.38;;;39.10;46.60;;;;;;5073740;28;20020;-80
2022/07/27 06:20:00;;;;;;;24.83;21.88;;;39.90;45.70;;;;;;5073350;28;20433;-80
2022/07/27 06:22:26;;;;;;;25.08;20.55;;;;;;;;;;5073537;28;20075;-78
2022/07/27 06:24:52;;;;;;;29.52;22.15;;;;;;;;;;5073783;28;20032;-79
2022/07/27 06:27:18;;;;;;;26.60;22.55;;;41.90;44.30;;;;;;5074281;28;20012;-77
2022/07/27 06:29:44;;;;;;;29.15;21.13;;;42.60;41.50;;;;;;5073515;28;20031;-78
2022/07/27 06:32:09;;;;;;;24.17;21.58;;;42.70;40.90;;;;;;5073207;28;20066;-77
2022/07/27 06:34:35;;;;;;;24.75;20.65;;;42.90;40.50;;;;;;5072989;28;20044;-78
2022/07/27 06:37:01;;;;;;;27.10;20.30;;;43.10;40.50;;;;;;5054795;28;20123;-79
2022/07/27 06:39:27;;;;;;;;;;;43.40;40.30;;;;;;5073293;28;20036;-79
2022/07/27 06:41:53;;;;;;;31.88;21.25;;;43.70;41.60;;;;;;5072783;28;19916;-79
2022/07/27 06:44:18;;;;;;;;;;;43.70;39.50;;;;;;5073140;28;20473;-79
2022/07/27 06:46:44;;;;;;;29.92;19.25;;;43.70;40.90;;;;;;5068882;28;19995;-79
2022/07/27 06:49:10;;;;;;;20.80;17.83;;;43.60;38.40;;;;;;5072528;28;20090;-78
2022/07/27 06:51:36;;;;;;;;;;;43.40;38.60;;;;;;5073270;28;20040;-80
2022/07/27 06:54:03;;;;;;;24.75;18.35;;;44.10;39.00;;;;;;5054817;28;19963;-78
2022/07/27 06:56:30;;;;;;;22.13;19.45;;;44.20;38.60;;;;;;5067079;28;20021;-78
2022/07/27 06:58:56;;;;;;;23.00;17.30;;;44.50;38.00;;;;;;5072737;28;20052;-79
2022/07/27 07:01:21;;;;;;;21.02;18.83;;;44.90;37.70;;;;;;5072411;28;20048;-80
2022/07/27 07:03:47;;;;;;;20.08;16.98;;;45.20;37.20;;;;;;5054844;28;20036;-79
2022/07/27 07:06:13;;;;;;;24.17;18.58;;;45.00;37.00;;;;;;5072727;28;20512;-80
2022/07/27 07:08:40;;;;;;;20.27;18.13;;;;;;;;;;5072585;28;20029;-79
2022/07/27 07:11:06;;;;;;;17.77;16.17;;;45.30;36.40;;;;;;5072860;28;20137;-80
2022/07/27 07:13:32;;;;;;;20.52;17.33;;;45.60;36.10;;;;;;5072445;28;20120;-80
2022/07/27 07:15:58;;;;;;;17.80;16.13;;;45.90;35.60;;;;;;5054621;28;20086;-80
2022/07/27 07:18:24;;;;;;;17.52;15.00;;;45.70;35.80;;;;;;5072433;28;20032;-78
2022/07/27 07:20:49;;;;;;;18.45;16.02;;;45.70;35.90;;;;;;5054545;28;20024;-79
2022/07/27 07:23:15;;;;;;;21.73;16.13;;;46.00;35.70;;;;;;5071202;28;20056;-79
2022/07/27 07:25:41;;;;;;;19.25;17.42;;;46.40;35.20;;;;;;5072250;28;20025;-80
2022/07/27 07:28:08;;;;;;;19.00;17.17;;;46.60;35.10;;;;;;5072541;28;20492;-80
2022/07/27 07:30:34;;;;;;;17.38;15.48;;;46.80;34.80;;;;;;5072280;28;20389;-80
2022/07/27 07:33:01;;;;;;;19.42;16.63;;;46.50;34.60;;;;;;5072153;28;20027;-79
2022/07/27 07:35:27;;;;;;;17.83;16.27;;;46.20;35.00;;;;;;5072144;28;20060;-79
2022/07/27 07:37:53;;;;;;;19.83;17.20;;;46.00;35.10;;;;;;5072399;28;20024;-79
2022/07/27 07:40:19;;;;;;;25.10;16.40;;;46.20;35.00;;;;;;5071932;28;20024;-79
2022/07/27 07:42:54;;;;;;;20.77;15.57;;;46.30;34.80;;;;;;5072363;28;20027;-79
2022/07/27 07:45:21;;;;;;;19.45;17.70;;;46.10;34.90;;;;;;5054021;28;20078;-80
2022/07/27 07:47:48;;;;;;;19.38;16.17;;;45.60;34.90;;;;;;5071917;28;20043;-79
2022/07/27 07:50:15;;;;;;;18.42;16.23;;;45.80;35.50;;;;;;5071919;28;20013;-80
2022/07/27 07:52:41;;;;;;;17.83;15.75;;;46.30;35.00;;;;;;5071778;28;20028;-80
2022/07/27 07:55:07;;;;;;;16.10;14.57;;;46.90;34.30;;;;;;5071971;28;20044;-80
2022/07/27 07:57:33;;;;;;;21.10;15.13;;;47.20;34.10;;;;;;5053649;28;20158;-80
2022/07/27 07:59:59;;;;;;;16.42;14.77;;;47.60;34.10;;;;;;5071861;28;20024;-80
2022/07/27 08:02:25;;;;;;;16.98;14.52;;;47.90;33.20;;;;;;5071737;28;20063;-81
2022/07/27 08:04:51;;;;;;;16.75;15.10;;;48.10;32.80;;;;;;5071684;28;20051;-80
2022/07/27 08:07:16;;;;;;;15.10;13.70;;;48.40;32.40;;;;;;5053816;28;20103;-78
2022/07/27 08:09:43;;;;;;;16.83;14.02;;;48.40;33.00;;;;;;5053615;28;20123;-80
2022/07/27 08:12:09;;;;;;;16.20;14.35;;;47.90;32.50;;;;;;5071335;28;20484;-80
2022/07/27 08:14:35;;;;;;;17.02;15.00;;;48.20;32.60;;;;;;5071476;28;20070;-80
2022/07/27 08:17:00;;;;;;;18.25;15.63;;;48.10;32.70;;;;;;5053360;28;20028;-79
2022/07/27 08:19:27;;;;;;;17.63;15.20;;;47.50;32.80;;;;;;5071550;28;20524;-78
2022/07/27 08:21:53;;;;;;;17.65;15.57;;;47.40;33.60;;;;;;5071177;28;20086;-79
2022/07/27 08:24:19;;;;;;;18.65;14.98;;;47.70;32.90;;;;;;5071615;28;20107;-79
2022/07/27 08:26:44;;;;;;;17.85;15.52;;;47.70;33.10;;;;;;5071660;28;20460;-79
2022/07/27 08:29:10;;;;;;;17.95;14.63;;;47.70;33.00;;;;;;5071625;28;20029;-80
2022/07/27 08:31:36;;;;;;;14.00;12.73;;;47.60;32.30;;;;;;5072276;28;20047;-80
2022/07/27 08:34:02;;;;;;;20.15;14.55;;;47.50;31.90;;;;;;5053099;28;20043;-80
2022/07/27 08:36:28;;;;;;;17.98;14.90;;;47.60;32.20;;;;;;5071922;28;20096;-80
2022/07/27 08:38:54;;;;;;;17.60;13.77;;;47.80;32.70;;;;;;5072926;28;20025;-81
2022/07/27 08:41:24;;;;;;;16.42;15.00;;;48.00;32.70;;;;;;5073564;28;20059;-82
2022/07/27 08:43:53;;;;;;;15.63;13.75;;;48.50;32.40;;;;;;5071062;28;20025;-81
2022/07/27 08:46:20;;;;;;;15.00;13.70;;;48.50;32.10;;;;;;5071258;28;20016;-80
2022/07/27 08:48:46;;;;;;;14.63;13.38;;;48.20;32.00;;;;;;5071449;28;20028;-80
2022/07/27 08:51:13;;;;;;;16.88;14.65;;;47.80;32.00;;;;;;5071408;28;20021;-80
2022/07/27 08:53:39;;;;;;;14.98;13.35;;;47.80;32.50;;;;;;5071359;28;20032;-80
2022/07/27 08:56:05;;;;;;;14.30;12.13;;;47.90;31.70;;;;;;5071352;28;20017;-82
2022/07/27 08:58:31;;;;;;;14.82;13.27;;;46.90;32.10;;;;;;5071655;28;20043;-80
2022/07/27 09:00:57;;;;;;;14.07;12.75;;;45.50;33.20;;;;;;5071048;28;20393;-80
2022/07/27 09:03:23;;;;;;;14.75;13.40;;;45.00;32.60;;;;;;5053151;28;20056;-78
2022/07/27 09:05:51;;;;;;;14.60;13.30;;;44.70;33.90;;;;;;5071080;28;20074;-81
2022/07/27 09:08:21;;;;;;;15.88;13.52;;;45.10;33.70;;;;;;5070922;28;20032;-80
2022/07/27 09:10:47;;;;;;;14.13;12.85;;;44.90;33.70;;;;;;5071055;28;20020;-79
2022/07/27 09:13:25;;;;;;;14.50;13.20;;;44.80;32.90;;;;;;5052631;28;20064;-78
2022/07/27 09:15:53;;;;;;;16.85;15.35;;;44.70;33.80;;;;;;5052966;28;20052;-80
2022/07/27 09:18:22;;;;;;;18.25;15.98;;;43.30;34.10;;;;;;5070839;28;20024;-80
2022/07/27 09:21:10;;;;;;;18.33;16.73;;;42.10;36.20;;;;;;5071314;28;20099;-80
2022/07/27 09:23:42;;;;;;;18.17;16.27;;;40.80;37.60;;;;;;5071205;28;20055;-81
2022/07/27 09:26:12;;;;;;;18.10;16.23;;;39.20;39.80;;;;;;5071124;28;20485;-80
2022/07/27 09:28:39;;;;;;;18.27;16.58;;;39.30;40.40;;;;;;5070645;28;20047;-80
2022/07/27 09:31:10;;;;;;;17.83;16.27;;;39.70;39.90;;;;;;5052488;28;20021;-80
2022/07/27 09:33:47;;;;;;;16.60;15.05;;;41.00;38.10;;;;;;5070644;28;20537;-81
2022/07/27 09:36:15;;;;;;;16.98;15.02;;;38.50;37.70;;;;;;5070658;28;20134;-80
2022/07/27 09:39:06;;;;;;;17.98;16.38;;;38.10;39.60;;;;;;5070224;28;20040;-81
2022/07/27 09:41:50;;;;;;;18.38;16.52;;;36.50;41.40;;;;;;5070588;28;20020;-81
2022/07/27 09:44:36;;;;;;;19.45;16.40;;;34.80;43.90;;;;;;5070414;28;20021;-81
2022/07/27 09:47:26;;;;;;;19.45;17.40;;;33.90;46.00;;;;;;5072053;28;20489;-80
2022/07/27 09:49:53;;;;;;;18.58;16.75;;;33.80;47.30;;;;;;5074150;28;20459;-81
2022/07/27 09:52:25;;;;;;;18.75;16.80;;;33.90;47.70;;;;;;5074043;28;20029;-80
2022/07/27 09:54:51;;;;;;;21.50;17.92;;;33.90;47.60;;;;;;5055957;28;20239;-80
2022/07/27 09:57:20;;;;;;;19.17;17.13;;;33.70;48.90;;;;;;5074053;28;20497;-80
2022/07/27 09:59:45;;;;;;;19.27;17.38;;;33.90;48.10;;;;;;5073889;28;20032;-80
2022/07/27 10:02:12;;;;;;;20.50;18.43;;;34.00;47.90;;;;;;5055933;28;20029;-82
2022/07/27 10:04:39;;;;;;;20.85;18.73;;;33.90;48.60;;;;;;5055772;28;20028;-80
2022/07/27 10:07:05;;;;;;;19.60;17.48;;;34.10;48.20;;;;;;5073893;28;20100;-80
2022/07/27 10:09:33;;;;;;;19.70;17.70;;;33.80;47.30;;;;;;5073821;28;20060;-80
2022/07/27 10:12:00;;;;;;;18.98;17.10;;;34.20;47.80;;;;;;5055659;28;20486;-80
2022/07/27 10:14:26;;;;;;;21.77;19.63;;;35.50;45.90;;;;;;5073663;28;20040;-81
2022/07/27 10:16:54;;;;;;;19.80;17.90;;;36.00;44.90;;;;;;5073678;28;20489;-81
2022/07/27 10:19:40;;;;;;;20.42;18.48;;;35.50;45.40;;;;;;5073441;28;20013;-80
2022/07/27 10:22:06;;;;;;;21.13;17.55;;;35.90;45.90;;;;;;5073445;28;20492;-80
2022/07/27 10:24:35;;;;;;;16.15;14.75;;;37.60;44.00;;;;;;5073602;28;20067;-80
2022/07/27 10:27:26;;;;;;;16.23;14.75;;;38.70;40.30;;;;;;5073252;28;20070;-82
2022/07/27 10:29:53;;;;;;;16.60;14.90;;;38.10;40.80;;;;;;5073849;28;20104;-80
2022/07/27 10:32:29;;;;;;;16.60;15.10;;;38.90;39.80;;;;;;5073717;28;20038;-80
2022/07/27 10:34:56;;;;;;;18.15;16.42;;;39.70;39.30;;;;;;5074230;28;20044;-80
2022/07/27 10:37:27;;;;;;;19.17;17.35;;;39.30;39.90;;;;;;5055220;28;20024;-79
2022/07/27 10:42:40;;;;;;;19.05;17.13;;;38.00;40.40;;;;;;5073618;28;20024;-79
2022/07/27 10:45:06;;;;;;;;;;;37.10;41.80;;;;;;5073597;28;20036;-81
2022/07/27 10:47:39;;;;;;;19.80;17.90;;;36.30;42.20;;;;;;5073013;28;19904;-81
2022/07/27 10:50:14;;;;;;;21.08;19.08;;;35.70;44.50;;;;;;5073002;28;20494;-81
2022/07/27 10:52:41;;;;;;;20.38;18.30;;;35.20;45.90;;;;;;5072916;28;20016;-81
2022/07/27 10:55:28;;;;;;;21.98;19.75;;;34.90;46.40;;;;;;5073296;28;20052;-79
2022/07/27 10:57:54;;;;;;;;;;;34.70;47.20;;;;;;5073115;28;20023;-80
2022/07/27 11:00:20;;;;;;;20.35;18.23;;;34.40;46.80;;;;;;5073524;28;20281;-79
2022/07/27 11:02:46;;;;;;;21.13;19.10;;;34.30;47.70;;;;;;5072870;28;20032;-79
2022/07/27 11:05:12;;;;;;;20.55;18.65;;;34.30;48.10;;;;;;5077626;28;20033;-81
2022/07/27 11:07:43;;;;;;;21.30;19.20;;;34.30;48.20;;;;;;5072671;28;20099;-80
2022/07/27 11:10:11;;;;;;;20.73;18.98;;;34.50;48.40;;;;;;5072449;28;20069;-79
2022/07/27 11:12:39;;;;;;;20.25;18.27;;;34.50;47.40;;;;;;5054420;28;20028;-79
2022/07/27 11:15:06;;;;;;;21.00;19.00;;;34.30;47.70;;;;;;5072419;28;20167;-81
2022/07/27 11:17:32;;;;;;;19.38;17.48;;;34.10;46.40;;;;;;5072690;28;20032;-79
2022/07/27 11:19:59;;;;;;;20.77;18.63;;;33.60;47.10;;;;;;5072340;28;20381;-80
2022/07/27 11:22:35;;;;;;;21.75;19.42;;;33.00;48.50;;;;;;5072389;28;20064;-80
2022/07/27 11:25:02;;;;;;;21.90;19.70;;;32.90;49.20;;;;;;5054522;28;20081;-81
2022/07/27 11:27:28;;;;;;;23.40;19.35;;;33.00;49.80;;;;;;5072074;28;20016;-81
2022/07/27 11:29:53;;;;;;;21.60;19.50;;;33.10;49.80;;;;;;5071989;28;20028;-80
2022/07/27 11:32:20;;;;;;;21.90;19.73;;;33.20;49.70;;;;;;5072009;28;20385;-81
2022/07/27 11:34:46;;;;;;;22.80;19.25;;;33.20;49.50;;;;;;5054237;28;20085;-80
2022/07/27 11:37:18;;;;;;;21.67;18.98;;;33.20;49.70;;;;;;5072255;28;20021;-80
2022/07/27 11:39:47;;;;;;;20.38;18.27;;;33.10;49.70;;;;;;5072043;28;20046;-80
2022/07/27 11:42:17;;;;;;;21.52;19.48;;;32.90;49.80;;;;;;5071901;28;20023;-80
2022/07/27 11:44:44;;;;;;;21.30;19.15;;;32.70;50.10;;;;;;5072097;28;20335;-80
2022/07/27 11:47:19;;;;;;;21.80;19.75;;;32.50;50.30;;;;;;5071933;28;20016;-80
2022/07/27 11:49:44;;;;;;;20.23;17.77;;;32.20;50.80;;;;;;5071821;28;20422;-81
2022/07/27 11:52:11;;;;;;;26.90;19.48;;;32.00;50.90;;;;;;5072062;28;20025;-79
2022/07/27 11:54:39;;;;;;;28.13;20.08;;;31.70;51.40;;;;;;5071778;28;20410;-80
2022/07/27 11:57:04;;;;;;;19.45;17.65;;;31.60;51.50;;;;;;5071769;28;20394;-80
2022/07/27 11:59:35;;;;;;;22.15;18.45;;;31.70;51.70;;;;;;5071563;28;20104;-80
2022/07/27 12:02:07;;;;;;;20.10;17.52;;;31.80;51.90;;;;;;5071664;28;20037;-79
2022/07/27 12:04:40;;;;;;;19.83;17.83;;;31.80;51.10;;;;;;5071632;28;20024;-81
2022/07/27 12:07:32;;;;;;;18.98;17.10;;;31.70;51.30;;;;;;5071707;28;20031;-80
2022/07/27 12:10:00;;;;;;;19.50;17.63;;;31.80;50.60;;;;;;5071173;28;20028;-80
2022/07/27 12:12:29;;;;;;;19.23;17.33;;;31.80;50.80;;;;;;5071800;28;20028;-81
2022/07/27 12:14:56;;;;;;;19.00;17.25;;;31.80;50.60;;;;;;5053905;28;20080;-80
2022/07/27 12:17:34;;;;;;;19.58;15.95;;;31.80;50.00;;;;;;5072182;28;20130;-82
2022/07/27 12:20:14;;;;;;;21.42;17.80;;;31.90;50.30;;;;;;5053342;28;20025;-80
2022/07/27 12:22:44;;;;;;;18.90;17.10;;;31.70;50.50;;;;;;5071486;28;20044;-80
2022/07/27 12:25:15;;;;;;;19.33;16.98;;;31.60;51.30;;;;;;5071641;28;20032;-80
2022/07/27 12:28:03;;;;;;;19.00;17.15;;;31.30;51.10;;;;;;5071625;28;20086;-83
2022/07/27 12:30:43;;;;;;;23.45;18.15;;;31.20;51.50;;;;;;5071481;28;20031;-82
2022/07/27 12:33:28;;;;;;;20.15;18.00;;;31.30;51.80;;;;;;5071468;28;20028;-81
2022/07/27 12:35:54;;;;;;;20.08;17.98;;;31.40;51.50;;;;;;5071865;28;20032;-80
2022/07/27 12:38:20;;;;;;;18.97;17.03;;;31.80;51.70;;;;;;5072203;28;20028;-79
2022/07/27 12:40:55;;;;;;;19.77;17.45;;;32.00;50.70;;;;;;5071949;28;20021;-79
2022/07/27 12:43:23;;;;;;;18.80;16.87;;;32.00;50.50;;;;;;5071519;28;20060;-80